sensor_id;sensor_type;location;lat;lon;timestamp;P1;durP1;ratioP1;P2;durP2;ratioP2
80411;SDS011;69749;42.684;23.360;2024-01-25T00:01:11;22.27;;;13.38;;
80411;SDS011;69749;42.684;23.360;2024-01-25T00:03:36;24.23;;;12.55;;
80411;SDS011;69749;42.684;23.360;2024-01-25T00:06:02;21.83;;;12.73;;
80411;SDS011;69749;42.684;23.360;2024-01-25T00:08:28;19.23;;;11.68;;
80411;SDS011;69749;42.684;23.360;2024-01-25T00:10:53;21.23;;;11.88;;
80411;SDS011;69749;42.684;23.360;2024-01-25T00:13:19;18.10;;;11.20;;
80411;SDS011;69749;42.684;23.360;2024-01-25T00:15:44;23.20;;;12.52;;
80411;SDS011;69749;42.684;23.360;2024-01-25T00:18:10;23.55;;;12.05;;
80411;SDS011;69749;42.684;23.360;2024-01-25T00:20:35;19.08;;;11.63;;
80411;SDS011;69749;42.684;23.360;2024-01-25T00:23:01;20.85;;;12.73;;
80411;SDS011;69749;42.684;23.360;2024-01-25T00:25:26;22.83;;;11.93;;
80411;SDS011;69749;42.684;23.360;2024-01-25T00:27:52;16.00;;;10.10;;
80411;SDS011;69749;42.684;23.360;2024-01-25T00:30:17;26.17;;;11.82;;
80411;SDS011;69749;42.684;23.360;2024-01-25T00:32:43;22.17;;;11.57;;
80411;SDS011;69749;42.684;23.360;2024-01-25T00:35:09;22.52;;;11.50;;
80411;SDS011;69749;42.684;23.360;2024-01-25T00:37:36;18.05;;;10.77;;
80411;SDS011;69749;42.684;23.360;2024-01-25T00:40:02;20.40;;;11.57;;
80411;SDS011;69749;42.684;23.360;2024-01-25T00:42:28;20.83;;;11.27;;
80411;SDS011;69749;42.684;23.360;2024-01-25T00:44:56;21.08;;;12.05;;
80411;SDS011;69749;42.684;23.360;2024-01-25T00:47:21;20.00;;;10.32;;
80411;SDS011;69749;42.684;23.360;2024-01-25T00:49:48;20.98;;;11.23;;
80411;SDS011;69749;42.684;23.360;2024-01-25T00:52:13;20.63;;;11.73;;
80411;SDS011;69749;42.684;23.360;2024-01-25T00:54:39;17.30;;;10.88;;
80411;SDS011;69749;42.684;23.360;2024-01-25T00:57:05;17.13;;;11.05;;
80411;SDS011;69749;42.684;23.360;2024-01-25T00:59:31;20.40;;;10.98;;
80411;SDS011;69749;42.684;23.360;2024-01-25T01:01:58;19.95;;;11.15;;
80411;SDS011;69749;42.684;23.360;2024-01-25T01:04:24;17.52;;;10.88;;
80411;SDS011;69749;42.684;23.360;2024-01-25T01:06:51;22.30;;;11.55;;
80411;SDS011;69749;42.684;23.360;2024-01-25T01:09:17;20.70;;;11.50;;
80411;SDS011;69749;42.684;23.360;2024-01-25T01:11:43;19.73;;;11.45;;
80411;SDS011;69749;42.684;23.360;2024-01-25T01:14:08;25.42;;;13.57;;
80411;SDS011;69749;42.684;23.360;2024-01-25T01:16:34;21.75;;;12.75;;
80411;SDS011;69749;42.684;23.360;2024-01-25T01:19:01;21.70;;;13.00;;
80411;SDS011;69749;42.684;23.360;2024-01-25T01:21:30;22.50;;;14.13;;
80411;SDS011;69749;42.684;23.360;2024-01-25T01:23:57;20.88;;;13.07;;
80411;SDS011;69749;42.684;23.360;2024-01-25T01:26:22;21.92;;;13.57;;
80411;SDS011;69749;42.684;23.360;2024-01-25T01:28:48;23.20;;;12.38;;
80411;SDS011;69749;42.684;23.360;2024-01-25T01:31:13;16.55;;;11.65;;
80411;SDS011;69749;42.684;23.360;2024-01-25T01:33:39;21.60;;;11.82;;
80411;SDS011;69749;42.684;23.360;2024-01-25T01:36:05;23.17;;;12.80;;
80411;SDS011;69749;42.684;23.360;2024-01-25T01:38:30;20.33;;;12.43;;
80411;SDS011;69749;42.684;23.360;2024-01-25T01:40:56;24.02;;;12.93;;
80411;SDS011;69749;42.684;23.360;2024-01-25T01:43:22;22.38;;;12.25;;
80411;SDS011;69749;42.684;23.360;2024-01-25T01:45:48;22.40;;;13.05;;
80411;SDS011;69749;42.684;23.360;2024-01-25T01:48:14;22.23;;;13.27;;
80411;SDS011;69749;42.684;23.360;2024-01-25T01:50:41;24.27;;;14.65;;
80411;SDS011;69749;42.684;23.360;2024-01-25T01:53:10;24.58;;;14.93;;
80411;SDS011;69749;42.684;23.360;2024-01-25T01:55:37;29.38;;;15.80;;
80411;SDS011;69749;42.684;23.360;2024-01-25T01:58:05;30.33;;;15.60;;
80411;SDS011;69749;42.684;23.360;2024-01-25T02:00:30;28.83;;;14.30;;
80411;SDS011;69749;42.684;23.360;2024-01-25T02:05:24;26.25;;;14.68;;
80411;SDS011;69749;42.684;23.360;2024-01-25T02:07:49;26.10;;;15.10;;
80411;SDS011;69749;42.684;23.360;2024-01-25T02:10:17;28.60;;;14.45;;
80411;SDS011;69749;42.684;23.360;2024-01-25T02:12:42;26.65;;;13.90;;
80411;SDS011;69749;42.684;23.360;2024-01-25T02:15:08;21.95;;;12.50;;
80411;SDS011;69749;42.684;23.360;2024-01-25T02:17:34;24.00;;;13.15;;
80411;SDS011;69749;42.684;23.360;2024-01-25T02:19:59;21.92;;;12.27;;
80411;SDS011;69749;42.684;23.360;2024-01-25T02:24:52;21.40;;;11.95;;
80411;SDS011;69749;42.684;23.360;2024-01-25T02:27:18;20.45;;;13.52;;
80411;SDS011;69749;42.684;23.360;2024-01-25T02:29:43;21.30;;;12.10;;
80411;SDS011;69749;42.684;23.360;2024-01-25T02:32:09;23.30;;;13.32;;
80411;SDS011;69749;42.684;23.360;2024-01-25T02:34:35;22.02;;;13.32;;
80411;SDS011;69749;42.684;23.360;2024-01-25T02:37:00;22.70;;;12.85;;
80411;SDS011;69749;42.684;23.360;2024-01-25T02:39:26;22.27;;;12.73;;
80411;SDS011;69749;42.684;23.360;2024-01-25T02:41:51;23.75;;;13.43;;
80411;SDS011;69749;42.684;23.360;2024-01-25T02:44:17;26.30;;;14.60;;
80411;SDS011;69749;42.684;23.360;2024-01-25T02:46:42;22.95;;;13.70;;
80411;SDS011;69749;42.684;23.360;2024-01-25T02:49:10;22.90;;;13.77;;
80411;SDS011;69749;42.684;23.360;2024-01-25T02:51:35;25.88;;;14.82;;
80411;SDS011;69749;42.684;23.360;2024-01-25T02:54:01;24.42;;;13.23;;
80411;SDS011;69749;42.684;23.360;2024-01-25T02:56:27;21.73;;;12.35;;
80411;SDS011;69749;42.684;23.360;2024-01-25T02:58:59;22.80;;;12.60;;
80411;SDS011;69749;42.684;23.360;2024-01-25T03:01:24;22.35;;;11.55;;
80411;SDS011;69749;42.684;23.360;2024-01-25T03:03:50;21.98;;;12.73;;
80411;SDS011;69749;42.684;23.360;2024-01-25T03:06:15;18.77;;;10.95;;
80411;SDS011;69749;42.684;23.360;2024-01-25T03:08:41;19.38;;;11.27;;
80411;SDS011;69749;42.684;23.360;2024-01-25T03:11:06;18.27;;;10.73;;
80411;SDS011;69749;42.684;23.360;2024-01-25T03:13:32;20.63;;;11.15;;
80411;SDS011;69749;42.684;23.360;2024-01-25T03:15:59;22.17;;;11.20;;
80411;SDS011;69749;42.684;23.360;2024-01-25T03:18:25;21.58;;;11.50;;
80411;SDS011;69749;42.684;23.360;2024-01-25T03:20:50;20.70;;;11.80;;
80411;SDS011;69749;42.684;23.360;2024-01-25T03:23:16;18.27;;;11.35;;
80411;SDS011;69749;42.684;23.360;2024-01-25T03:25:42;20.42;;;10.68;;
80411;SDS011;69749;42.684;23.360;2024-01-25T03:28:07;16.60;;;9.43;;
80411;SDS011;69749;42.684;23.360;2024-01-25T03:30:34;13.90;;;7.70;;
80411;SDS011;69749;42.684;23.360;2024-01-25T03:33:00;9.75;;;6.15;;
80411;SDS011;69749;42.684;23.360;2024-01-25T03:35:25;8.25;;;4.45;;
80411;SDS011;69749;42.684;23.360;2024-01-25T03:37:51;2.83;;;2.08;;
80411;SDS011;69749;42.684;23.360;2024-01-25T03:40:17;4.03;;;2.28;;
80411;SDS011;69749;42.684;23.360;2024-01-25T03:42:42;2.42;;;1.20;;
80411;SDS011;69749;42.684;23.360;2024-01-25T03:45:08;1.55;;;1.05;;
80411;SDS011;69749;42.684;23.360;2024-01-25T03:47:33;2.35;;;1.20;;
80411;SDS011;69749;42.684;23.360;2024-01-25T03:49:59;1.27;;;1.02;;
80411;SDS011;69749;42.684;23.360;2024-01-25T03:52:25;1.85;;;1.17;;
80411;SDS011;69749;42.684;23.360;2024-01-25T03:54:50;4.90;;;1.30;;
80411;SDS011;69749;42.684;23.360;2024-01-25T03:57:16;1.75;;;1.02;;
80411;SDS011;69749;42.684;23.360;2024-01-25T03:59:42;1.25;;;1.10;;
80411;SDS011;69749;42.684;23.360;2024-01-25T04:02:07;1.55;;;1.40;;
80411;SDS011;69749;42.684;23.360;2024-01-25T04:04:34;3.03;;;1.48;;
80411;SDS011;69749;42.684;23.360;2024-01-25T04:07:00;1.65;;;1.20;;
80411;SDS011;69749;42.684;23.360;2024-01-25T04:09:25;2.28;;;1.27;;
80411;SDS011;69749;42.684;23.360;2024-01-25T04:11:51;2.88;;;1.40;;
80411;SDS011;69749;42.684;23.360;2024-01-25T04:14:16;3.88;;;1.42;;
80411;SDS011;69749;42.684;23.360;2024-01-25T04:16:42;4.50;;;1.73;;
80411;SDS011;69749;42.684;23.360;2024-01-25T04:19:07;2.25;;;1.55;;
80411;SDS011;69749;42.684;23.360;2024-01-25T04:21:33;4.13;;;3.22;;
80411;SDS011;69749;42.684;23.360;2024-01-25T04:23:58;6.45;;;3.63;;
80411;SDS011;69749;42.684;23.360;2024-01-25T04:26:24;4.15;;;2.78;;
80411;SDS011;69749;42.684;23.360;2024-01-25T04:28:49;3.75;;;2.75;;
80411;SDS011;69749;42.684;23.360;2024-01-25T04:31:15;5.45;;;3.30;;
80411;SDS011;69749;42.684;23.360;2024-01-25T04:33:40;5.30;;;2.65;;
80411;SDS011;69749;42.684;23.360;2024-01-25T04:36:06;6.45;;;2.47;;
80411;SDS011;69749;42.684;23.360;2024-01-25T04:38:31;4.70;;;2.58;;
80411;SDS011;69749;42.684;23.360;2024-01-25T04:40:57;5.05;;;2.90;;
80411;SDS011;69749;42.684;23.360;2024-01-25T04:43:22;4.18;;;2.90;;
80411;SDS011;69749;42.684;23.360;2024-01-25T04:45:48;6.18;;;2.75;;
80411;SDS011;69749;42.684;23.360;2024-01-25T04:48:13;4.10;;;2.55;;
80411;SDS011;69749;42.684;23.360;2024-01-25T04:50:39;5.10;;;3.40;;
80411;SDS011;69749;42.684;23.360;2024-01-25T04:53:04;6.07;;;3.47;;
80411;SDS011;69749;42.684;23.360;2024-01-25T04:55:30;7.93;;;4.00;;
80411;SDS011;69749;42.684;23.360;2024-01-25T04:57:56;5.55;;;3.25;;
80411;SDS011;69749;42.684;23.360;2024-01-25T05:00:21;6.72;;;3.42;;
80411;SDS011;69749;42.684;23.360;2024-01-25T05:02:48;5.65;;;3.08;;
80411;SDS011;69749;42.684;23.360;2024-01-25T05:05:14;3.70;;;2.60;;
80411;SDS011;69749;42.684;23.360;2024-01-25T05:07:40;4.60;;;2.92;;
80411;SDS011;69749;42.684;23.360;2024-01-25T05:10:06;4.60;;;2.78;;
80411;SDS011;69749;42.684;23.360;2024-01-25T05:12:31;5.30;;;3.22;;
80411;SDS011;69749;42.684;23.360;2024-01-25T05:14:58;5.60;;;2.72;;
80411;SDS011;69749;42.684;23.360;2024-01-25T05:17:23;7.32;;;2.90;;
80411;SDS011;69749;42.684;23.360;2024-01-25T05:19:49;5.80;;;3.05;;
80411;SDS011;69749;42.684;23.360;2024-01-25T05:22:14;4.30;;;2.63;;
80411;SDS011;69749;42.684;23.360;2024-01-25T05:24:41;3.55;;;2.83;;
80411;SDS011;69749;42.684;23.360;2024-01-25T05:27:07;6.00;;;2.83;;
80411;SDS011;69749;42.684;23.360;2024-01-25T05:29:32;7.45;;;2.70;;
80411;SDS011;69749;42.684;23.360;2024-01-25T05:31:58;4.28;;;2.80;;
80411;SDS011;69749;42.684;23.360;2024-01-25T05:34:23;4.07;;;3.28;;
80411;SDS011;69749;42.684;23.360;2024-01-25T05:36:49;4.20;;;2.60;;
80411;SDS011;69749;42.684;23.360;2024-01-25T05:39:15;5.10;;;2.75;;
80411;SDS011;69749;42.684;23.360;2024-01-25T05:41:40;5.05;;;2.50;;
80411;SDS011;69749;42.684;23.360;2024-01-25T05:44:06;5.57;;;2.35;;
80411;SDS011;69749;42.684;23.360;2024-01-25T05:46:31;3.30;;;2.28;;
80411;SDS011;69749;42.684;23.360;2024-01-25T05:48:57;4.60;;;2.58;;
80411;SDS011;69749;42.684;23.360;2024-01-25T05:51:23;3.55;;;2.20;;
80411;SDS011;69749;42.684;23.360;2024-01-25T05:53:48;5.68;;;2.72;;
80411;SDS011;69749;42.684;23.360;2024-01-25T05:56:14;6.97;;;4.30;;
80411;SDS011;69749;42.684;23.360;2024-01-25T05:58:39;3.00;;;1.75;;
80411;SDS011;69749;42.684;23.360;2024-01-25T06:01:06;4.57;;;2.13;;
80411;SDS011;69749;42.684;23.360;2024-01-25T06:03:32;3.75;;;2.85;;
80411;SDS011;69749;42.684;23.360;2024-01-25T06:05:57;7.03;;;2.28;;
80411;SDS011;69749;42.684;23.360;2024-01-25T06:08:23;3.20;;;2.10;;
80411;SDS011;69749;42.684;23.360;2024-01-25T06:10:48;4.05;;;1.88;;
80411;SDS011;69749;42.684;23.360;2024-01-25T06:13:15;3.65;;;2.20;;
80411;SDS011;69749;42.684;23.360;2024-01-25T06:15:40;4.28;;;1.88;;
80411;SDS011;69749;42.684;23.360;2024-01-25T06:18:06;3.60;;;2.47;;
80411;SDS011;69749;42.684;23.360;2024-01-25T06:20:31;4.57;;;2.35;;
80411;SDS011;69749;42.684;23.360;2024-01-25T06:22:57;4.72;;;2.47;;
80411;SDS011;69749;42.684;23.360;2024-01-25T06:25:23;7.30;;;2.58;;
80411;SDS011;69749;42.684;23.360;2024-01-25T06:27:48;2.67;;;2.03;;
80411;SDS011;69749;42.684;23.360;2024-01-25T06:30:14;5.70;;;2.55;;
80411;SDS011;69749;42.684;23.360;2024-01-25T06:32:39;4.38;;;2.75;;
80411;SDS011;69749;42.684;23.360;2024-01-25T06:35:05;6.10;;;2.60;;
80411;SDS011;69749;42.684;23.360;2024-01-25T06:37:31;4.10;;;2.53;;
80411;SDS011;69749;42.684;23.360;2024-01-25T06:39:57;4.38;;;2.38;;
80411;SDS011;69749;42.684;23.360;2024-01-25T06:42:22;5.35;;;2.67;;
80411;SDS011;69749;42.684;23.360;2024-01-25T06:44:48;5.85;;;2.47;;
80411;SDS011;69749;42.684;23.360;2024-01-25T06:47:13;7.93;;;3.25;;
80411;SDS011;69749;42.684;23.360;2024-01-25T06:49:39;6.00;;;2.65;;
80411;SDS011;69749;42.684;23.360;2024-01-25T06:52:05;4.25;;;2.72;;
80411;SDS011;69749;42.684;23.360;2024-01-25T06:54:30;5.78;;;2.58;;
80411;SDS011;69749;42.684;23.360;2024-01-25T06:56:56;6.13;;;2.75;;
80411;SDS011;69749;42.684;23.360;2024-01-25T06:59:22;3.42;;;2.28;;
80411;SDS011;69749;42.684;23.360;2024-01-25T07:01:48;5.93;;;2.70;;
80411;SDS011;69749;42.684;23.360;2024-01-25T07:04:14;6.22;;;2.42;;
80411;SDS011;69749;42.684;23.360;2024-01-25T07:06:39;5.88;;;2.55;;
80411;SDS011;69749;42.684;23.360;2024-01-25T07:09:05;3.10;;;2.33;;
80411;SDS011;69749;42.684;23.360;2024-01-25T07:11:31;5.25;;;2.30;;
80411;SDS011;69749;42.684;23.360;2024-01-25T07:13:56;7.10;;;3.25;;
80411;SDS011;69749;42.684;23.360;2024-01-25T07:16:22;4.95;;;2.30;;
80411;SDS011;69749;42.684;23.360;2024-01-25T07:18:48;7.47;;;2.00;;
80411;SDS011;69749;42.684;23.360;2024-01-25T07:21:14;6.30;;;2.40;;
80411;SDS011;69749;42.684;23.360;2024-01-25T07:23:40;9.48;;;2.92;;
80411;SDS011;69749;42.684;23.360;2024-01-25T07:26:06;4.97;;;2.28;;
80411;SDS011;69749;42.684;23.360;2024-01-25T07:28:31;6.13;;;2.67;;
80411;SDS011;69749;42.684;23.360;2024-01-25T07:30:57;6.03;;;2.10;;
80411;SDS011;69749;42.684;23.360;2024-01-25T07:33:22;7.68;;;2.15;;
80411;SDS011;69749;42.684;23.360;2024-01-25T07:35:48;7.82;;;3.08;;
80411;SDS011;69749;42.684;23.360;2024-01-25T07:38:14;5.95;;;2.90;;
80411;SDS011;69749;42.684;23.360;2024-01-25T07:40:40;8.30;;;2.53;;
80411;SDS011;69749;42.684;23.360;2024-01-25T07:43:06;5.88;;;2.50;;
80411;SDS011;69749;42.684;23.360;2024-01-25T07:45:32;4.70;;;2.15;;
80411;SDS011;69749;42.684;23.360;2024-01-25T07:47:57;4.22;;;2.30;;
80411;SDS011;69749;42.684;23.360;2024-01-25T07:50:23;4.53;;;2.20;;
80411;SDS011;69749;42.684;23.360;2024-01-25T07:52:49;7.03;;;2.33;;
80411;SDS011;69749;42.684;23.360;2024-01-25T07:55:15;4.82;;;2.65;;
80411;SDS011;69749;42.684;23.360;2024-01-25T07:57:41;5.43;;;2.75;;
80411;SDS011;69749;42.684;23.360;2024-01-25T08:00:07;6.63;;;3.30;;
80411;SDS011;69749;42.684;23.360;2024-01-25T08:02:34;6.07;;;3.10;;
80411;SDS011;69749;42.684;23.360;2024-01-25T08:05:00;6.60;;;3.00;;
80411;SDS011;69749;42.684;23.360;2024-01-25T08:07:25;4.93;;;3.08;;
80411;SDS011;69749;42.684;23.360;2024-01-25T08:09:51;3.30;;;2.45;;
80411;SDS011;69749;42.684;23.360;2024-01-25T08:12:18;5.20;;;2.63;;
80411;SDS011;69749;42.684;23.360;2024-01-25T08:14:43;9.82;;;3.15;;
80411;SDS011;69749;42.684;23.360;2024-01-25T08:17:09;7.32;;;3.10;;
80411;SDS011;69749;42.684;23.360;2024-01-25T08:19:35;5.55;;;2.72;;
80411;SDS011;69749;42.684;23.360;2024-01-25T08:22:01;10.27;;;3.60;;
80411;SDS011;69749;42.684;23.360;2024-01-25T08:24:27;5.70;;;3.20;;
80411;SDS011;69749;42.684;23.360;2024-01-25T08:26:52;6.30;;;3.55;;
80411;SDS011;69749;42.684;23.360;2024-01-25T08:29:18;5.53;;;2.70;;
80411;SDS011;69749;42.684;23.360;2024-01-25T08:31:43;9.13;;;3.38;;
80411;SDS011;69749;42.684;23.360;2024-01-25T08:34:09;9.10;;;3.20;;
80411;SDS011;69749;42.684;23.360;2024-01-25T08:36:34;6.25;;;2.90;;
80411;SDS011;69749;42.684;23.360;2024-01-25T08:39:00;7.68;;;3.03;;
80411;SDS011;69749;42.684;23.360;2024-01-25T08:41:25;6.95;;;3.25;;
80411;SDS011;69749;42.684;23.360;2024-01-25T08:43:51;7.55;;;4.03;;
80411;SDS011;69749;42.684;23.360;2024-01-25T08:46:17;7.65;;;3.22;;
80411;SDS011;69749;42.684;23.360;2024-01-25T08:48:42;9.00;;;4.10;;
80411;SDS011;69749;42.684;23.360;2024-01-25T08:51:08;8.18;;;3.38;;
80411;SDS011;69749;42.684;23.360;2024-01-25T08:53:33;6.38;;;2.72;;
80411;SDS011;69749;42.684;23.360;2024-01-25T08:55:59;9.82;;;3.67;;
80411;SDS011;69749;42.684;23.360;2024-01-25T08:58:25;7.63;;;3.72;;
80411;SDS011;69749;42.684;23.360;2024-01-25T09:00:50;9.45;;;3.20;;
80411;SDS011;69749;42.684;23.360;2024-01-25T09:03:16;5.90;;;2.70;;
80411;SDS011;69749;42.684;23.360;2024-01-25T09:05:41;5.70;;;2.90;;
80411;SDS011;69749;42.684;23.360;2024-01-25T09:08:13;9.23;;;2.85;;
80411;SDS011;69749;42.684;23.360;2024-01-25T09:10:40;6.20;;;2.80;;
80411;SDS011;69749;42.684;23.360;2024-01-25T09:13:06;6.03;;;3.42;;
80411;SDS011;69749;42.684;23.360;2024-01-25T09:15:32;9.30;;;3.78;;
80411;SDS011;69749;42.684;23.360;2024-01-25T09:17:58;7.95;;;3.22;;
80411;SDS011;69749;42.684;23.360;2024-01-25T09:20:24;7.50;;;3.47;;
80411;SDS011;69749;42.684;23.360;2024-01-25T09:22:50;6.22;;;3.17;;
80411;SDS011;69749;42.684;23.360;2024-01-25T09:25:16;8.65;;;3.78;;
80411;SDS011;69749;42.684;23.360;2024-01-25T09:27:42;8.70;;;2.90;;
80411;SDS011;69749;42.684;23.360;2024-01-25T09:30:10;6.55;;;2.80;;
80411;SDS011;69749;42.684;23.360;2024-01-25T09:32:35;6.95;;;2.88;;
80411;SDS011;69749;42.684;23.360;2024-01-25T09:35:01;7.28;;;3.08;;
80411;SDS011;69749;42.684;23.360;2024-01-25T09:37:26;10.60;;;3.83;;
80411;SDS011;69749;42.684;23.360;2024-01-25T09:39:52;7.50;;;3.38;;
80411;SDS011;69749;42.684;23.360;2024-01-25T09:42:18;8.38;;;3.20;;
80411;SDS011;69749;42.684;23.360;2024-01-25T09:44:44;11.02;;;4.95;;
80411;SDS011;69749;42.684;23.360;2024-01-25T09:47:10;9.57;;;4.53;;
80411;SDS011;69749;42.684;23.360;2024-01-25T09:49:38;9.35;;;4.57;;
80411;SDS011;69749;42.684;23.360;2024-01-25T09:52:04;8.45;;;4.35;;
80411;SDS011;69749;42.684;23.360;2024-01-25T09:54:38;7.13;;;3.88;;
80411;SDS011;69749;42.684;23.360;2024-01-25T09:57:15;13.02;;;3.85;;
80411;SDS011;69749;42.684;23.360;2024-01-25T09:59:54;7.22;;;3.30;;
80411;SDS011;69749;42.684;23.360;2024-01-25T10:02:52;9.00;;;3.28;;
80411;SDS011;69749;42.684;23.360;2024-01-25T10:05:21;9.20;;;3.42;;
80411;SDS011;69749;42.684;23.360;2024-01-25T10:07:46;10.25;;;4.18;;
80411;SDS011;69749;42.684;23.360;2024-01-25T10:10:12;8.75;;;3.40;;
80411;SDS011;69749;42.684;23.360;2024-01-25T10:12:57;9.13;;;4.35;;
80411;SDS011;69749;42.684;23.360;2024-01-25T10:15:23;8.65;;;3.20;;
80411;SDS011;69749;42.684;23.360;2024-01-25T10:17:54;7.03;;;3.28;;
80411;SDS011;69749;42.684;23.360;2024-01-25T10:20:20;10.40;;;3.60;;
80411;SDS011;69749;42.684;23.360;2024-01-25T10:22:49;6.82;;;3.58;;
80411;SDS011;69749;42.684;23.360;2024-01-25T10:25:25;9.10;;;4.03;;
80411;SDS011;69749;42.684;23.360;2024-01-25T10:30:55;6.28;;;2.65;;
80411;SDS011;69749;42.684;23.360;2024-01-25T10:33:47;11.00;;;3.83;;
80411;SDS011;69749;42.684;23.360;2024-01-25T10:36:13;11.05;;;4.13;;
80411;SDS011;69749;42.684;23.360;2024-01-25T10:38:39;8.93;;;3.67;;
80411;SDS011;69749;42.684;23.360;2024-01-25T10:41:07;6.75;;;3.35;;
80411;SDS011;69749;42.684;23.360;2024-01-25T10:43:33;10.73;;;4.47;;
80411;SDS011;69749;42.684;23.360;2024-01-25T10:46:01;9.15;;;3.92;;
80411;SDS011;69749;42.684;23.360;2024-01-25T10:48:28;10.18;;;4.00;;
80411;SDS011;69749;42.684;23.360;2024-01-25T10:50:56;7.43;;;3.85;;
80411;SDS011;69749;42.684;23.360;2024-01-25T10:55:53;6.40;;;3.17;;
80411;SDS011;69749;42.684;23.360;2024-01-25T10:58:24;6.30;;;3.55;;
80411;SDS011;69749;42.684;23.360;2024-01-25T11:00:55;5.95;;;3.03;;
80411;SDS011;69749;42.684;23.360;2024-01-25T11:03:25;7.10;;;3.17;;
80411;SDS011;69749;42.684;23.360;2024-01-25T11:05:55;6.57;;;3.28;;
80411;SDS011;69749;42.684;23.360;2024-01-25T11:08:30;7.20;;;3.15;;
80411;SDS011;69749;42.684;23.360;2024-01-25T11:10:56;8.63;;;3.42;;
80411;SDS011;69749;42.684;23.360;2024-01-25T11:13:26;6.07;;;2.83;;
80411;SDS011;69749;42.684;23.360;2024-01-25T11:15:52;7.50;;;3.05;;
80411;SDS011;69749;42.684;23.360;2024-01-25T11:18:17;7.47;;;3.40;;
80411;SDS011;69749;42.684;23.360;2024-01-25T11:20:46;10.32;;;3.85;;
80411;SDS011;69749;42.684;23.360;2024-01-25T11:23:13;7.95;;;4.00;;
80411;SDS011;69749;42.684;23.360;2024-01-25T11:25:40;9.07;;;3.47;;
80411;SDS011;69749;42.684;23.360;2024-01-25T11:28:10;7.38;;;3.88;;
80411;SDS011;69749;42.684;23.360;2024-01-25T11:30:36;7.10;;;3.78;;
80411;SDS011;69749;42.684;23.360;2024-01-25T11:33:06;11.07;;;4.40;;
80411;SDS011;69749;42.684;23.360;2024-01-25T11:35:32;8.38;;;3.05;;
80411;SDS011;69749;42.684;23.360;2024-01-25T11:37:58;7.65;;;3.05;;
80411;SDS011;69749;42.684;23.360;2024-01-25T11:40:25;9.00;;;3.42;;
80411;SDS011;69749;42.684;23.360;2024-01-25T11:42:50;9.35;;;3.45;;
80411;SDS011;69749;42.684;23.360;2024-01-25T11:45:16;7.50;;;3.10;;
80411;SDS011;69749;42.684;23.360;2024-01-25T11:47:43;16.17;;;4.25;;
80411;SDS011;69749;42.684;23.360;2024-01-25T11:50:10;7.82;;;3.75;;
80411;SDS011;69749;42.684;23.360;2024-01-25T11:52:37;8.50;;;3.70;;
80411;SDS011;69749;42.684;23.360;2024-01-25T11:55:04;7.40;;;3.90;;
80411;SDS011;69749;42.684;23.360;2024-01-25T11:57:31;5.03;;;2.63;;
80411;SDS011;69749;42.684;23.360;2024-01-25T12:00:00;9.30;;;3.03;;
80411;SDS011;69749;42.684;23.360;2024-01-25T12:02:26;6.60;;;2.60;;
80411;SDS011;69749;42.684;23.360;2024-01-25T12:04:52;7.93;;;2.42;;
80411;SDS011;69749;42.684;23.360;2024-01-25T12:07:20;6.55;;;2.35;;
80411;SDS011;69749;42.684;23.360;2024-01-25T12:09:56;9.88;;;3.42;;
80411;SDS011;69749;42.684;23.360;2024-01-25T12:12:28;5.45;;;2.15;;
80411;SDS011;69749;42.684;23.360;2024-01-25T12:14:58;6.60;;;2.47;;
80411;SDS011;69749;42.684;23.360;2024-01-25T12:17:25;9.52;;;2.33;;
80411;SDS011;69749;42.684;23.360;2024-01-25T12:19:54;7.28;;;2.83;;
80411;SDS011;69749;42.684;23.360;2024-01-25T12:22:20;7.30;;;2.88;;
80411;SDS011;69749;42.684;23.360;2024-01-25T12:24:46;5.53;;;2.63;;
80411;SDS011;69749;42.684;23.360;2024-01-25T12:27:14;9.05;;;2.78;;
80411;SDS011;69749;42.684;23.360;2024-01-25T12:29:41;7.72;;;2.85;;
80411;SDS011;69749;42.684;23.360;2024-01-25T12:32:08;8.90;;;3.08;;
80411;SDS011;69749;42.684;23.360;2024-01-25T12:34:34;6.65;;;2.25;;
80411;SDS011;69749;42.684;23.360;2024-01-25T12:39:28;6.97;;;2.85;;
80411;SDS011;69749;42.684;23.360;2024-01-25T12:41:53;9.95;;;3.10;;
80411;SDS011;69749;42.684;23.360;2024-01-25T12:44:19;8.60;;;2.75;;
80411;SDS011;69749;42.684;23.360;2024-01-25T12:46:44;7.05;;;3.08;;
80411;SDS011;69749;42.684;23.360;2024-01-25T12:49:10;7.68;;;3.35;;
80411;SDS011;69749;42.684;23.360;2024-01-25T12:51:35;7.90;;;2.58;;
80411;SDS011;69749;42.684;23.360;2024-01-25T12:54:13;8.60;;;2.50;;
80411;SDS011;69749;42.684;23.360;2024-01-25T12:56:41;5.35;;;2.72;;
80411;SDS011;69749;42.684;23.360;2024-01-25T12:59:09;12.82;;;3.53;;
80411;SDS011;69749;42.684;23.360;2024-01-25T13:01:40;9.38;;;3.10;;
80411;SDS011;69749;42.684;23.360;2024-01-25T13:04:12;8.75;;;3.08;;
80411;SDS011;69749;42.684;23.360;2024-01-25T13:06:43;6.88;;;3.00;;
80411;SDS011;69749;42.684;23.360;2024-01-25T13:09:18;6.95;;;3.38;;
80411;SDS011;69749;42.684;23.360;2024-01-25T13:11:43;10.18;;;3.50;;
80411;SDS011;69749;42.684;23.360;2024-01-25T13:14:09;5.45;;;2.45;;
80411;SDS011;69749;42.684;23.360;2024-01-25T13:16:34;6.85;;;2.80;;
80411;SDS011;69749;42.684;23.360;2024-01-25T13:19:00;8.45;;;3.20;;
80411;SDS011;69749;42.684;23.360;2024-01-25T13:21:25;9.00;;;2.95;;
80411;SDS011;69749;42.684;23.360;2024-01-25T13:23:51;7.00;;;2.58;;
80411;SDS011;69749;42.684;23.360;2024-01-25T13:26:16;5.45;;;2.13;;
80411;SDS011;69749;42.684;23.360;2024-01-25T13:28:42;7.60;;;2.55;;
80411;SDS011;69749;42.684;23.360;2024-01-25T13:31:07;5.45;;;2.35;;
80411;SDS011;69749;42.684;23.360;2024-01-25T13:33:33;5.55;;;2.45;;
80411;SDS011;69749;42.684;23.360;2024-01-25T13:35:58;8.40;;;2.80;;
80411;SDS011;69749;42.684;23.360;2024-01-25T13:38:24;8.32;;;2.85;;
80411;SDS011;69749;42.684;23.360;2024-01-25T13:40:50;5.63;;;2.50;;
80411;SDS011;69749;42.684;23.360;2024-01-25T13:43:16;5.63;;;2.47;;
80411;SDS011;69749;42.684;23.360;2024-01-25T13:45:41;7.50;;;2.67;;
80411;SDS011;69749;42.684;23.360;2024-01-25T13:48:07;5.70;;;2.40;;
80411;SDS011;69749;42.684;23.360;2024-01-25T13:50:32;7.88;;;2.63;;
80411;SDS011;69749;42.684;23.360;2024-01-25T13:52:58;13.00;;;3.45;;
80411;SDS011;69749;42.684;23.360;2024-01-25T13:55:23;5.35;;;2.75;;
80411;SDS011;69749;42.684;23.360;2024-01-25T13:57:49;8.35;;;2.65;;
80411;SDS011;69749;42.684;23.360;2024-01-25T14:00:14;7.90;;;2.88;;
80411;SDS011;69749;42.684;23.360;2024-01-25T14:02:40;10.65;;;4.43;;
80411;SDS011;69749;42.684;23.360;2024-01-25T14:05:10;9.63;;;3.55;;
80411;SDS011;69749;42.684;23.360;2024-01-25T14:07:38;8.13;;;2.65;;
80411;SDS011;69749;42.684;23.360;2024-01-25T14:10:04;9.77;;;3.40;;
80411;SDS011;69749;42.684;23.360;2024-01-25T14:12:30;7.65;;;3.53;;
80411;SDS011;69749;42.684;23.360;2024-01-25T14:14:55;8.70;;;3.45;;
80411;SDS011;69749;42.684;23.360;2024-01-25T14:17:20;7.28;;;2.90;;
80411;SDS011;69749;42.684;23.360;2024-01-25T14:19:46;9.13;;;3.97;;
80411;SDS011;69749;42.684;23.360;2024-01-25T14:22:12;16.42;;;3.88;;
80411;SDS011;69749;42.684;23.360;2024-01-25T14:24:38;10.43;;;3.47;;
80411;SDS011;69749;42.684;23.360;2024-01-25T14:27:05;9.90;;;4.15;;
80411;SDS011;69749;42.684;23.360;2024-01-25T14:29:30;8.52;;;3.40;;
80411;SDS011;69749;42.684;23.360;2024-01-25T14:31:58;8.95;;;3.53;;
80411;SDS011;69749;42.684;23.360;2024-01-25T14:34:24;8.55;;;3.38;;
80411;SDS011;69749;42.684;23.360;2024-01-25T14:36:50;9.10;;;3.10;;